KDRI/DRI METAR and TAF weather

Enter ICAO airport designator
Station Type Date Time Source
KDRI METAR 2018/10/19 16:15 UTC NOAA

KDRI 191615Z AUTO 11005KT 10SM CLR 23/15 A3022 RMK AO2 T02280154


Station Type Date Time Source
KDRI Decoded METAR 2018/10/19 16:15 UTC NOAA

De Ridder, Beauregard Parish Airport, LA, United States (KDRI) 30-49-54N 093-20-23W
Oct 19, 2018 - 12:15 PM EDT / 2018.10.19 1615 UTC
Wind: from the ESE (110 degrees) at 6 MPH (5 KT):0
Visibility: 10 mile(s):0
Sky conditions: clear
Temperature: 73.0 F (22.8 C)
Dew Point: 59.7 F (15.4 C)
Relative Humidity: 63%
Pressure (altimeter): 30.22 in. Hg (1023 hPa)
ob: KDRI 191615Z AUTO 11005KT 10SM CLR 23/15 A3022 RMK AO2 T02280154
cycle: 16

Station Type Date Time Source
KDRI TAF UTC NOAA

Error!


Example: see airport list